Airfield :
LOGIN :

Register | Disclaimer

   EN    FR    IT 

 










Legend :    VFR   Marginal VFR   IFR   Intensive IFR   Very Intensive IFR
Visi :
Ceiling :
>= 8 km
>= 3000ft
5 to 8 km
1000 to 3000 ft
1500m to 5 km
500 to 1000 ft
800 to 1500m
200 to 500 ft
< 800m
< 200 ft
Symbols :   Thunderstorms  Fog  Heavy snow  Heavy precipitations  Wind > 20 kt
SIGMETs :     Misc.  Thunderstorms  Icing  Turbulence  Mountain Waves  Volcanic Ashes






- Airport Elevation : 1058 ft
- IATA code : SCN


EDDR - Saarbrücken

CURRENT METAR :
  • 051350Z 04007KT 010V080 9999 FEW027 BKN046 04/M01 Q1024 NOSIG

EXPIRED METARs :
  • 051320Z 03008KT 9999 FEW026 BKN048 04/M01 Q1024 NOSIG
  • 051250Z 05008KT 9999 FEW026 BKN048 04/M01 Q1024 NOSIG
  • 051220Z 04009KT 9999 FEW024 BKN047 04/M01 Q1024 NOSIG
  • 051150Z 04011KT 360V060 9999 FEW024 05/00 Q1024 NOSIG
  • 051120Z 03011KT 360V070 9999 FEW023 BKN046 04/M01 Q1024 NOSIG

TAF TAF EDDR
Valid from the 05 at 12:00 until the 06 at 12:00 UTC


051100Z 0512/0612 04009KT 9999 SCT040
PROB30
TEMPO 0610/0612 07015G25KT



MET'MAP, your aeronautical weather chart ! - Copyright ORBIFLY December 2007 - Disclaimer

ORBIFLY MET'MAP TEAM :

Programming & Development : Alexandra Zaïnal
Concept & original design : Baudouin d'Aumeries
Assistance for programming : Marc-Olivier Méhu
Technical & hardware support : Manuel Goepfert

Contact : metmap@orbifly.com




SOURCES & CREDITS :

   NOAA